createdAt,value
2023-06-12T00:01:31.114Z,82.09
2023-06-12T00:05:34.002Z,80.94
2023-06-12T00:09:37.146Z,84.32
2023-06-12T00:13:40.625Z,87.16
2023-06-12T00:17:45.068Z,88.49
2023-06-12T00:21:47.830Z,87.34
2023-06-12T00:25:50.934Z,85.47
2023-06-12T00:29:54.006Z,83.67
2023-06-12T00:33:58.507Z,82.28
2023-06-12T00:38:02.059Z,85.16
2023-06-12T00:42:06.019Z,89.75
2023-06-12T00:46:09.053Z,86.64
2023-06-12T00:50:14.421Z,86.07
2023-06-12T00:54:17.652Z,88.19
2023-06-12T00:58:20.576Z,89.97
2023-06-12T01:02:23.863Z,83.00
2023-06-12T01:06:36.086Z,86.45
2023-06-12T01:10:42.903Z,91.23
2023-06-12T01:14:47.540Z,88.42
2023-06-12T01:18:51.225Z,88.30
2023-06-12T01:22:58.041Z,92.37
2023-06-12T01:27:22.343Z,89.68
2023-06-12T01:31:28.890Z,89.53
2023-06-12T01:35:38.280Z,89.62
2023-06-12T01:39:43.647Z,91.44
2023-06-12T01:43:46.646Z,91.70
2023-06-12T01:47:49.496Z,87.83
2023-06-12T01:51:53.676Z,92.78
2023-06-12T01:55:58.098Z,91.11
2023-06-12T02:00:01.602Z,91.53
2023-06-12T02:04:04.643Z,92.01
2023-06-12T02:08:09.026Z,89.97
2023-06-12T02:12:12.483Z,92.29
2023-06-12T02:16:17.551Z,93.33
2023-06-12T02:20:20.365Z,93.87
2023-06-12T02:24:27.339Z,92.84
2023-06-12T02:28:30.260Z,91.69
2023-06-12T02:32:34.736Z,93.01
2023-06-12T02:36:41.083Z,94.67
2023-06-12T02:40:45.412Z,93.48
2023-06-12T02:44:48.469Z,93.64
2023-06-12T02:48:51.338Z,94.85
2023-06-12T02:52:54.741Z,94.45
2023-06-12T02:56:59.122Z,95.79
2023-06-12T03:01:03.980Z,95.09
2023-06-12T03:05:07.704Z,95.60
2023-06-12T03:09:10.792Z,93.65
2023-06-12T03:13:15.600Z,94.14
2023-06-12T03:17:19.187Z,91.71
2023-06-12T03:21:22.988Z,94.01
2023-06-12T03:25:26.211Z,93.96
2023-06-12T03:29:30.500Z,94.31
2023-06-12T03:33:33.654Z,94.32
2023-06-12T03:37:36.537Z,93.89
2023-06-12T03:41:53.273Z,94.88
2023-06-12T03:45:57.943Z,95.83
2023-06-12T03:50:01.299Z,92.84
2023-06-12T03:54:04.297Z,94.59
2023-06-12T03:58:07.162Z,91.03
2023-06-12T04:02:11.363Z,95.89
2023-06-12T04:06:14.426Z,95.90
2023-06-12T04:10:17.419Z,94.23
2023-06-12T04:14:21.672Z,95.67
2023-06-12T04:18:26.252Z,94.94
2023-06-12T04:22:29.271Z,92.48
2023-06-12T04:26:32.942Z,93.66
2023-06-12T04:30:36.860Z,93.94
2023-06-12T04:34:42.400Z,93.90
2023-06-12T04:38:45.280Z,95.00
2023-06-12T04:42:48.313Z,93.00
2023-06-12T04:46:53.886Z,94.65
2023-06-12T04:50:59.350Z,95.17
2023-06-12T04:55:02.967Z,90.99
2023-06-12T04:59:05.837Z,90.24
2023-06-12T05:03:09.393Z,91.82
2023-06-12T05:07:18.006Z,92.08
2023-06-12T05:11:21.039Z,91.63
2023-06-12T05:15:24.067Z,88.90
2023-06-12T05:19:27.028Z,92.01
2023-06-12T05:23:31.336Z,83.38
2023-06-12T05:27:34.506Z,72.86
2023-06-12T05:31:37.696Z,55.50
2023-06-12T05:35:40.459Z,57.15
2023-06-12T05:39:44.727Z,53.57
2023-06-12T05:43:48.057Z,48.35
2023-06-12T05:47:52.107Z,47.52
2023-06-12T05:51:55.917Z,55.53
2023-06-12T05:56:04.002Z,62.03
2023-06-12T06:00:12.538Z,58.89
2023-06-12T06:04:16.027Z,57.03
2023-06-12T06:08:19.062Z,55.20
2023-06-12T06:12:23.200Z,57.91
2023-06-12T06:16:29.313Z,52.88
2023-06-12T06:20:39.689Z,48.17
2023-06-12T06:24:42.539Z,53.11
2023-06-12T06:28:53.263Z,52.72
2023-06-12T06:33:06.515Z,49.48
2023-06-12T06:37:09.333Z,47.53
2023-06-12T06:41:12.203Z,49.33
2023-06-12T06:45:17.110Z,49.82
2023-06-12T06:49:20.033Z,40.82
2023-06-12T06:53:23.310Z,48.90
2023-06-12T06:57:27.184Z,44.75
2023-06-12T07:01:34.897Z,42.69
2023-06-12T07:05:38.093Z,41.44
2023-06-12T07:09:41.159Z,40.90
2023-06-12T07:13:44.618Z,41.74
2023-06-12T07:17:48.867Z,38.93
2023-06-12T07:21:52.006Z,40.81
2023-06-12T07:25:55.025Z,38.78
2023-06-12T07:29:57.741Z,40.19
2023-06-12T07:34:01.753Z,43.22
2023-06-12T07:38:05.153Z,40.70
2023-06-12T07:42:08.410Z,43.97
2023-06-12T07:46:11.929Z,44.08
2023-06-12T07:50:16.834Z,41.77
2023-06-12T07:54:19.693Z,44.06
2023-06-12T07:58:22.476Z,43.29
2023-06-12T08:02:30.030Z,42.42
2023-06-12T08:06:36.954Z,44.50
2023-06-12T08:10:40.027Z,47.95
2023-06-12T08:14:43.004Z,46.83
2023-06-12T08:18:46.011Z,44.49
2023-06-12T08:22:50.903Z,43.78
2023-06-12T08:26:54.091Z,44.82
2023-06-12T08:30:59.336Z,43.85
2023-06-12T08:35:02.609Z,43.16
2023-06-12T08:39:11.699Z,42.81
2023-06-12T08:43:15.313Z,42.85
2023-06-12T08:47:18.796Z,38.17
2023-06-12T08:51:22.944Z,39.26
2023-06-12T08:55:27.940Z,38.80
2023-06-12T08:59:31.178Z,36.84
2023-06-12T09:03:34.633Z,38.99
2023-06-12T09:07:39.917Z,38.90
2023-06-12T09:11:44.639Z,38.95
2023-06-12T09:15:52.631Z,39.62
2023-06-12T09:19:55.634Z,38.03
2023-06-12T09:23:58.408Z,42.71
2023-06-12T09:28:04.912Z,38.90
2023-06-12T09:32:10.136Z,37.28
2023-06-12T09:36:14.698Z,39.40
2023-06-12T09:40:17.685Z,37.23
2023-06-12T09:44:23.653Z,34.30
2023-06-12T09:48:27.803Z,34.44
2023-06-12T09:52:31.438Z,34.74
2023-06-12T09:56:35.037Z,36.29
2023-06-12T10:00:39.789Z,34.03
2023-06-12T10:04:50.568Z,35.69
2023-06-12T10:08:55.945Z,33.83
2023-06-12T10:13:01.000Z,36.73
2023-06-12T10:17:06.740Z,35.98
2023-06-12T10:21:10.119Z,35.73
2023-06-12T10:25:13.851Z,34.73
2023-06-12T10:29:32.749Z,34.82
2023-06-12T10:33:38.841Z,34.35
2023-06-12T10:37:44.975Z,33.50
2023-06-12T10:41:57.527Z,31.98
2023-06-12T10:46:00.818Z,31.23
2023-06-12T10:50:10.707Z,32.75
2023-06-12T10:54:16.704Z,35.86
2023-06-12T10:58:22.091Z,33.04
2023-06-12T11:02:25.371Z,31.79
2023-06-12T11:06:30.578Z,34.17
2023-06-12T11:10:35.214Z,38.33
2023-06-12T11:14:38.215Z,32.61
2023-06-12T11:18:41.225Z,33.63
2023-06-12T11:22:45.849Z,30.89
2023-06-12T11:26:51.012Z,31.19
2023-06-12T11:35:02.849Z,32.40
2023-06-12T11:43:27.715Z,31.38
2023-06-12T11:51:38.587Z,31.10
2023-06-12T11:59:50.039Z,31.87
2023-06-12T12:03:57.183Z,32.33
2023-06-12T12:08:01.283Z,33.16
2023-06-12T12:12:11.036Z,32.91
2023-06-12T12:16:14.551Z,36.12
2023-06-12T12:20:19.928Z,31.57
2023-06-12T12:24:23.169Z,30.89
2023-06-12T12:28:27.693Z,31.49
2023-06-12T12:32:30.996Z,29.32
2023-06-12T12:36:33.909Z,32.32
2023-06-12T12:40:37.093Z,30.00
2023-06-12T12:44:41.380Z,32.20
2023-06-12T12:48:44.614Z,31.13
2023-06-12T12:52:50.214Z,35.56
2023-06-12T12:56:53.453Z,34.50
2023-06-12T13:00:58.118Z,30.78
2023-06-12T13:05:01.121Z,31.29
2023-06-12T13:09:05.172Z,31.62
2023-06-12T13:13:08.090Z,34.39
2023-06-12T13:17:12.737Z,34.01
2023-06-12T13:21:15.669Z,38.87
2023-06-12T13:25:18.785Z,32.53
2023-06-12T13:29:21.723Z,31.67
2023-06-12T13:33:26.256Z,29.82
2023-06-12T13:37:28.950Z,32.11
2023-06-12T13:41:32.043Z,32.21
2023-06-12T13:45:35.950Z,30.37
2023-06-12T13:49:40.137Z,33.12
2023-06-12T13:53:42.931Z,31.34
2023-06-12T13:57:46.144Z,29.92
2023-06-12T14:01:49.780Z,31.10
2023-06-12T14:05:54.055Z,36.06
2023-06-12T14:09:57.218Z,30.70
2023-06-12T14:14:00.047Z,31.83
2023-06-12T14:18:04.491Z,30.71
2023-06-12T14:22:09.805Z,33.07
2023-06-12T14:26:12.982Z,31.30
2023-06-12T14:30:16.149Z,35.34
2023-06-12T14:34:19.634Z,34.11
2023-06-12T14:38:24.553Z,30.46
2023-06-12T14:42:27.574Z,34.87
2023-06-12T14:46:30.679Z,36.85
2023-06-12T14:50:33.682Z,43.05
2023-06-12T14:54:38.054Z,34.90
2023-06-12T14:58:42.932Z,36.31
2023-06-12T15:02:47.102Z,32.71
2023-06-12T15:06:49.895Z,39.20
2023-06-12T15:10:54.159Z,32.09
2023-06-12T15:14:56.969Z,32.91
2023-06-12T15:19:00.039Z,34.30
2023-06-12T15:23:02.846Z,34.70
2023-06-12T15:27:08.054Z,33.44
2023-06-12T15:31:11.536Z,32.97
2023-06-12T15:35:14.947Z,32.49
2023-06-12T15:39:18.037Z,35.00
2023-06-12T15:43:22.105Z,31.48
2023-06-12T15:47:25.546Z,34.63
2023-06-12T15:51:29.026Z,34.97
2023-06-12T15:55:31.932Z,29.63
2023-06-12T15:59:36.448Z,31.19
2023-06-12T16:03:39.271Z,35.98
2023-06-12T16:07:42.452Z,34.53
2023-06-12T16:11:45.377Z,34.43
2023-06-12T16:15:49.761Z,34.23
2023-06-12T16:19:52.713Z,34.42
2023-06-12T16:23:56.848Z,32.14
2023-06-12T16:28:04.113Z,31.83
2023-06-12T16:32:09.752Z,31.89
2023-06-12T16:36:13.177Z,34.69
2023-06-12T16:40:17.703Z,31.54
2023-06-12T16:44:20.987Z,31.21
2023-06-12T16:48:26.224Z,33.44
2023-06-12T16:52:29.164Z,30.56
2023-06-12T16:56:34.040Z,34.48
2023-06-12T17:00:37.094Z,31.71
2023-06-12T17:04:41.568Z,36.71
2023-06-12T17:08:44.431Z,35.39
2023-06-12T17:12:47.234Z,32.68
2023-06-12T17:16:50.044Z,37.02
2023-06-12T17:20:54.650Z,36.56
2023-06-12T17:24:57.700Z,31.37
2023-06-12T17:29:02.530Z,37.30
2023-06-12T17:33:05.385Z,37.91
2023-06-12T17:37:09.525Z,38.53
2023-06-12T17:41:12.287Z,39.13
2023-06-12T17:45:15.082Z,35.73
2023-06-12T17:49:18.135Z,35.24
2023-06-12T17:53:22.854Z,39.72
2023-06-12T17:57:25.904Z,38.70
2023-06-12T18:01:29.009Z,38.75
2023-06-12T18:05:31.864Z,41.68
2023-06-12T18:09:36.064Z,42.04
2023-06-12T18:13:39.369Z,44.09
2023-06-12T18:17:42.481Z,43.77
2023-06-12T18:21:45.936Z,44.36
2023-06-12T18:25:50.124Z,45.70
2023-06-12T18:29:54.913Z,43.97
2023-06-12T18:33:58.033Z,45.39
2023-06-12T18:38:01.641Z,40.78
2023-06-12T18:42:06.883Z,47.61
2023-06-12T18:46:10.075Z,48.07
2023-06-12T18:50:13.342Z,40.81
2023-06-12T18:54:16.293Z,48.51
2023-06-12T18:58:21.101Z,52.67
2023-06-12T19:02:24.612Z,52.81
2023-06-12T19:06:28.782Z,52.49
2023-06-12T19:10:31.995Z,51.39
2023-06-12T19:14:36.570Z,54.18
2023-06-12T19:18:39.714Z,55.45
2023-06-12T19:22:42.871Z,57.14
2023-06-12T19:26:46.419Z,56.81
2023-06-12T19:30:50.838Z,59.53
2023-06-12T19:34:53.576Z,60.39
2023-06-12T19:38:56.400Z,59.59
2023-06-12T19:42:59.269Z,61.94
2023-06-12T19:47:03.551Z,60.20
2023-06-12T19:51:07.321Z,60.87
2023-06-12T19:55:10.569Z,62.05
2023-06-12T19:59:13.737Z,60.32
2023-06-12T20:03:18.070Z,62.39
2023-06-12T20:07:21.067Z,63.04
2023-06-12T20:11:23.767Z,63.74
2023-06-12T20:15:26.941Z,65.98
2023-06-12T20:19:31.348Z,65.26
2023-06-12T20:23:34.564Z,66.63
2023-06-12T20:27:37.420Z,67.52
2023-06-12T20:31:40.655Z,66.95
2023-06-12T20:35:46.391Z,67.90
2023-06-12T20:39:49.158Z,66.75
2023-06-12T20:43:52.164Z,68.01
2023-06-12T20:47:55.056Z,66.80
2023-06-12T20:51:59.460Z,67.64
2023-06-12T20:56:03.047Z,69.65
2023-06-12T21:00:06.748Z,68.12
2023-06-12T21:04:13.070Z,68.02
2023-06-12T21:08:19.510Z,70.87
2023-06-12T21:12:23.915Z,72.52
2023-06-12T21:16:41.680Z,72.26
2023-06-12T21:20:45.301Z,73.12
2023-06-12T21:24:54.004Z,73.09
2023-06-12T21:28:57.054Z,73.44
2023-06-12T21:33:07.978Z,73.83
2023-06-12T21:37:21.327Z,74.73
2023-06-12T21:41:29.222Z,73.27
2023-06-12T21:45:32.761Z,72.22
2023-06-12T21:49:37.029Z,74.94
2023-06-12T21:53:44.637Z,74.43
2023-06-12T21:57:50.206Z,76.73
2023-06-12T22:01:56.477Z,76.65
2023-06-12T22:06:00.108Z,74.85
2023-06-12T22:10:03.124Z,77.14
2023-06-12T22:14:07.782Z,74.96
2023-06-12T22:18:11.700Z,75.74
2023-06-12T22:22:15.668Z,74.14
2023-06-12T22:26:18.717Z,74.64
2023-06-12T22:30:23.697Z,78.08
2023-06-12T22:34:31.396Z,78.07
2023-06-12T22:38:35.389Z,78.53
2023-06-12T22:42:39.012Z,78.23
2023-06-12T22:46:44.924Z,79.05
2023-06-12T22:50:48.709Z,78.79
2023-06-12T22:54:52.196Z,75.61
2023-06-12T22:58:56.173Z,76.98
2023-06-12T23:03:02.558Z,78.03
2023-06-12T23:07:08.824Z,80.54
2023-06-12T23:11:13.109Z,80.93
2023-06-12T23:15:16.743Z,80.27
2023-06-12T23:19:23.008Z,78.51
2023-06-12T23:23:26.879Z,81.75
2023-06-12T23:27:30.230Z,81.50
2023-06-12T23:31:34.003Z,84.52
2023-06-12T23:35:38.976Z,83.93
2023-06-12T23:39:45.362Z,82.68
2023-06-12T23:43:48.809Z,83.99
2023-06-12T23:47:52.555Z,82.83
2023-06-12T23:51:59.356Z,85.18
2023-06-12T23:56:04.033Z,83.98
